Nearby METAR Reports

 

KMTN - Baltimore/Martin, Maryland, USA
Distance from station: SSE 8mi, 13km
Updated: Sun, 23-Nov-2014 1:54pm EST
Partly cloudy
Partly cloudy
 Wind from ESE
Wind: ESE 5 mph , 7 km/h
Temperature: 50°F , 10°C
Wind Chill: 48°F , 9°C
Dew Point: 36°F , 2°C
Humidity: 58%
Barometer: 30.16 inHg , 1021.3 hPa
Clouds: Partly cloudy
Visibility: 10 miles , 16 km
Cloud details: Partly cloudy 18000 ft
2014/11/23 18:54 KMTN 231854Z 12004KT 10SM SCT180 10/02 A3016
KDMH - Baltimore/Dwntwn, Maryland, USA
Distance from station: SW 12mi, 19km
Updated: Sun, 23-Nov-2014 1:54pm EST

 
Temperature: 50°F , 10°C
Dew Point: 25°F , -4°C
Humidity: 37%
Barometer: 30.14 inHg , 1020.7 hPa
2014/11/23 18:54 KDMH 231854Z AUTO 10/M04 A3014 RMK AO1 SLP205 T01001044
 
KBWI - Balto/Wash Intl, Maryland, USA
Distance from station: SSW 20mi, 33km
Updated: Sun, 23-Nov-2014 1:54pm EST
Mostly cloudy
Mostly cloudy
 Wind from calm
Wind: Calm
Temperature: 54°F , 12°C
Dew Point: 25°F , -4°C
Humidity: 33%
Barometer: 30.12 inHg , 1020 hPa
Clouds: Mostly cloudy
Visibility: 10 miles , 16 km
Cloud details: Few Clouds 12000 ft
Partly cloudy 21000 ft
Mostly cloudy 25000 ft
2014/11/23 18:54 KBWI 231854Z 00000KT 10SM FEW120 SCT210 BKN250 12/M04 A3012 RMK AO2 SLP201 T01171039
KDMW - Carroll Cnty, Maryland, USA
Distance from station: WNW 30mi, 48km
Updated: Sun, 23-Nov-2014 2:20pm EST
Clear
Clear
 Wind from SSE
Wind: SSE 7 mph , 11 km/h
Temperature: 52°F , 11°C
Dew Point: 21°F , -6°C
Humidity: 30%
Barometer: 30.10 inHg , 1019.3 hPa
Clouds: Clear
Visibility: 10 miles , 16 km
2014/11/23 19:20 KDMW 231920Z AUTO 16006KT 10SM CLR 11/M06 A3010 RMK AO2
 
KNAK - Annapolis/Naval, Maryland, USA
Distance from station: S 30mi, 48km
Updated: Sun, 23-Nov-2014 1:54pm EST
Clear
Clear
 Wind from ESE
Wind: ESE 8 mph , 13 km/h
Temperature: 48°F , 9°C
Wind Chill: 44°F , 7°C
Dew Point: 39°F , 4°C
Humidity: 71%
Barometer: 30.13 inHg , 1020.3 hPa
Clouds: Clear
Visibility: 10 miles , 16 km
2014/11/23 18:54 KNAK 231854Z AUTO 12007KT 10SM CLR 09/04 A3013 RMK AO2 SLP206 T00890039
KW29 - Stevensville, Maryland, USA
Distance from station: SSE 31mi, 50km
Updated: Sun, 23-Nov-2014 2:21pm EST

 Wind from SSE
Wind: SSE 6 mph , 9 km/h
Temperature: 52°F , 11°C
Dew Point: 32°F , 0°C
Humidity: 47%
Barometer: 30.13 inHg , 1020.3 hPa
Visibility: 10 miles , 16 km
2014/11/23 19:21 KW29 231921Z AUTO 15005KT 10SM 11/00 A3013 RMK AO1
 
KCGS - College Park, Maryland, USA
Distance from station: SW 38mi, 61km
Updated: Sun, 23-Nov-2014 2:20pm EST
Clear
Clear
 Wind from calm
Wind: Calm
Temperature: 55°F , 13°C
Dew Point: 28°F , -2°C
Humidity: 36%
Barometer: 30.12 inHg , 1020 hPa
Clouds: Clear
Visibility: 10 miles , 16 km
2014/11/23 19:20 KCGS 231920Z AUTO 00000KT 10SM CLR 13/M02 A3012 RMK AO1
KGAI - Gaithersburg, Maryland, USA
Distance from station: WSW 40mi, 65km
Updated: Sun, 23-Nov-2014 2:15pm EST
Clear
Clear
 Wind from SSE
Wind: SSE 5 mph , 7 km/h
Temperature: 52°F , 11°C
Dew Point: 27°F , -3°C
Humidity: 38%
Barometer: 30.14 inHg , 1020.7 hPa
Clouds: Clear
Visibility: 10 miles , 16 km
2014/11/23 19:15 KGAI 231915Z 15004KT 10SM CLR 11/M03 A3014 RMK AO1
 
KTHV - York, Pennsylvania, USA
Distance from station: NNW 40mi, 65km
Updated: Sun, 23-Nov-2014 1:53pm EST
Clear
Clear
 Wind from SSE
Wind: SSE 9 mph , 15 km/h
Temperature: 59°F , 15°C
Dew Point: 25°F , -4°C
Humidity: 27%
Barometer: 30.08 inHg , 1018.6 hPa
Clouds: Clear
Visibility: 10 miles , 16 km
2014/11/23 18:53 KTHV 231853Z AUTO 15008KT 10SM CLR 15/M04 A3008 RMK AO2 SLP190 T01501039
KFDK - Frederick, Maryland, USA
Distance from station: W 47mi, 75km
Updated: Sun, 23-Nov-2014 1:50pm EST
Clear
Clear
 Wind from SSW
Wind: SSW 6 mph , 9 km/h
Temperature: 57°F , 14°C
Dew Point: 18°F , -8°C
Humidity: 21%
Barometer: 30.14 inHg , 1020.7 hPa
Clouds: Clear
Visibility: 10 miles , 16 km
2014/11/23 18:50 KFDK 231850Z 20005KT 10SM SKC 14/M08 A3014
 
KESN - Easton/Newnam, Maryland, USA
Distance from station: SSE 48mi, 78km
Updated: Sun, 23-Nov-2014 5:28am EST
NOT Current
Clear
Clear
 Wind from SW
Wind: SW 7 mph , 11 km/h
Temperature: 41°F , 5°C
Wind Chill: 36°F , 2°C
Dew Point: 25°F , -4°C
Humidity: 53%
Barometer: 30.26 inHg , 1024.7 hPa
Clouds: Clear
Visibility: 10 miles , 16 km
2014/11/23 10:28 KESN 231028Z AUTO 23006KT 10SM CLR 05/M04 A3026 RMK AO2 T00531043
KDCA - Washington/Natl, Washington D.c., USA
Distance from station: SW 49mi, 79km
Updated: Sun, 23-Nov-2014 1:52pm EST
Mostly cloudy
Mostly cloudy
 Wind from SSE
Wind: SSE 7 mph , 11 km/h
Temperature: 55°F , 13°C
Dew Point: 28°F , -2°C
Humidity: 36%
Barometer: 30.13 inHg , 1020.3 hPa
Clouds: Mostly cloudy
Visibility: 10 miles , 16 km
Cloud details: Mostly cloudy 10000 ft
Mostly cloudy 25000 ft
2014/11/23 18:52 KDCA 231852Z 16006KT 10SM BKN100 BKN250 13/M02 A3013 RMK AO2 SLP204 T01281022
 
KLNS - Lancaster, Pennsylvania, USA
Distance from station: N 49mi, 79km
Updated: Sun, 23-Nov-2014 1:53pm EST
Clear
Clear
 Wind from SSE
Wind: SSE 10 mph , 17 km/h
Temperature: 54°F , 12°C
Dew Point: 25°F , -4°C
Humidity: 33%
Barometer: 30.10 inHg , 1019.3 hPa
Clouds: Clear
Visibility: 10 miles , 16 km
2014/11/23 18:53 KLNS 231853Z 15009KT 10SM CLR 12/M04 A3010 RMK AO2 SLP196 T01221039
KILG - Wilmington, Delaware, USA
Distance from station: ENE 50mi, 81km
Updated: Sun, 23-Nov-2014 1:51pm EST
Clear
Clear
 Wind from SSE
Wind: SSE 7 mph , 11 km/h
Temperature: 54°F , 12°C
Dew Point: 28°F , -2°C
Humidity: 38%
Barometer: 30.16 inHg , 1021.3 hPa
Clouds: Clear
Visibility: 10 miles , 16 km
2014/11/23 18:51 KILG 231851Z AUTO 16006KT 10SM CLR 12/M02 A3016 RMK AO2 SLP211 T01171017